sensor_id;sensor_type;location;lat;lon;timestamp;temperature;humidity
25504;DHT22;13410;52.114;5.718;2022-11-27T00:02:02;10.40;99.90
25504;DHT22;13410;52.114;5.718;2022-11-27T00:04:28;10.40;99.90
25504;DHT22;13410;52.114;5.718;2022-11-27T00:06:53;10.60;99.90
25504;DHT22;13410;52.114;5.718;2022-11-27T00:09:19;10.70;99.90
25504;DHT22;13410;52.114;5.718;2022-11-27T00:11:44;10.70;99.90
25504;DHT22;13410;52.114;5.718;2022-11-27T00:14:12;10.60;99.90
25504;DHT22;13410;52.114;5.718;2022-11-27T00:16:38;10.50;99.90
25504;DHT22;13410;52.114;5.718;2022-11-27T00:19:04;10.30;99.90
25504;DHT22;13410;52.114;5.718;2022-11-27T00:21:32;10.30;99.90
25504;DHT22;13410;52.114;5.718;2022-11-27T00:24:00;10.40;99.90
25504;DHT22;13410;52.114;5.718;2022-11-27T00:26:26;10.40;99.90
25504;DHT22;13410;52.114;5.718;2022-11-27T00:28:52;10.40;99.90
25504;DHT22;13410;52.114;5.718;2022-11-27T00:31:21;10.30;99.90
25504;DHT22;13410;52.114;5.718;2022-11-27T00:33:47;10.20;99.90
25504;DHT22;13410;52.114;5.718;2022-11-27T00:36:14;10.30;99.90
25504;DHT22;13410;52.114;5.718;2022-11-27T00:38:40;10.40;99.90
25504;DHT22;13410;52.114;5.718;2022-11-27T00:41:13;10.10;99.90
25504;DHT22;13410;52.114;5.718;2022-11-27T00:43:39;10.00;99.90
25504;DHT22;13410;52.114;5.718;2022-11-27T00:46:05;10.10;99.90
25504;DHT22;13410;52.114;5.718;2022-11-27T00:48:30;10.20;99.90
25504;DHT22;13410;52.114;5.718;2022-11-27T00:51:00;10.00;99.90
25504;DHT22;13410;52.114;5.718;2022-11-27T00:53:27;10.10;99.90
25504;DHT22;13410;52.114;5.718;2022-11-27T00:55:54;10.10;99.90
25504;DHT22;13410;52.114;5.718;2022-11-27T00:58:19;10.10;99.90
25504;DHT22;13410;52.114;5.718;2022-11-27T01:00:45;10.10;99.90
25504;DHT22;13410;52.114;5.718;2022-11-27T01:03:11;10.20;99.90
25504;DHT22;13410;52.114;5.718;2022-11-27T01:05:37;10.30;99.90
25504;DHT22;13410;52.114;5.718;2022-11-27T01:08:03;10.30;99.90
25504;DHT22;13410;52.114;5.718;2022-11-27T01:10:29;10.20;99.90
25504;DHT22;13410;52.114;5.718;2022-11-27T01:12:54;10.30;99.90
25504;DHT22;13410;52.114;5.718;2022-11-27T01:15:20;10.40;99.90
25504;DHT22;13410;52.114;5.718;2022-11-27T01:17:46;10.30;99.90
25504;DHT22;13410;52.114;5.718;2022-11-27T01:20:11;10.30;99.90
25504;DHT22;13410;52.114;5.718;2022-11-27T01:22:37;10.40;99.90
25504;DHT22;13410;52.114;5.718;2022-11-27T01:25:03;10.30;99.90
25504;DHT22;13410;52.114;5.718;2022-11-27T01:27:28;10.20;99.90
25504;DHT22;13410;52.114;5.718;2022-11-27T01:29:54;10.10;99.90
25504;DHT22;13410;52.114;5.718;2022-11-27T01:32:20;10.30;99.90
25504;DHT22;13410;52.114;5.718;2022-11-27T01:34:45;10.10;99.90
25504;DHT22;13410;52.114;5.718;2022-11-27T01:37:11;10.10;99.90
25504;DHT22;13410;52.114;5.718;2022-11-27T01:39:36;10.00;99.90
25504;DHT22;13410;52.114;5.718;2022-11-27T01:42:02;10.00;99.90
25504;DHT22;13410;52.114;5.718;2022-11-27T01:47:04;9.70;99.90
25504;DHT22;13410;52.114;5.718;2022-11-27T01:49:34;9.70;99.90
25504;DHT22;13410;52.114;5.718;2022-11-27T01:52:05;9.80;99.90
25504;DHT22;13410;52.114;5.718;2022-11-27T01:54:36;9.80;99.90
25504;DHT22;13410;52.114;5.718;2022-11-27T01:57:09;9.90;99.90
25504;DHT22;13410;52.114;5.718;2022-11-27T01:59:36;9.80;99.90
25504;DHT22;13410;52.114;5.718;2022-11-27T02:02:02;9.80;99.90
25504;DHT22;13410;52.114;5.718;2022-11-27T02:04:28;9.80;99.90
25504;DHT22;13410;52.114;5.718;2022-11-27T02:06:57;9.50;99.90
25504;DHT22;13410;52.114;5.718;2022-11-27T02:09:23;9.60;99.90
25504;DHT22;13410;52.114;5.718;2022-11-27T02:12:26;9.80;99.90
25504;DHT22;13410;52.114;5.718;2022-11-27T02:15:03;9.70;99.90
25504;DHT22;13410;52.114;5.718;2022-11-27T02:20:18;9.70;99.90
25504;DHT22;13410;52.114;5.718;2022-11-27T02:31:03;9.20;99.90
25504;DHT22;13410;52.114;5.718;2022-11-27T02:33:31;9.10;99.90
25504;DHT22;13410;52.114;5.718;2022-11-27T02:36:06;9.20;99.90
25504;DHT22;13410;52.114;5.718;2022-11-27T02:38:38;9.20;99.90
25504;DHT22;13410;52.114;5.718;2022-11-27T02:43:39;9.10;99.90
25504;DHT22;13410;52.114;5.718;2022-11-27T02:46:07;9.20;99.90
25504;DHT22;13410;52.114;5.718;2022-11-27T02:48:44;9.20;99.90
25504;DHT22;13410;52.114;5.718;2022-11-27T02:51:11;9.30;99.90
25504;DHT22;13410;52.114;5.718;2022-11-27T02:53:43;9.30;99.90
25504;DHT22;13410;52.114;5.718;2022-11-27T02:56:12;9.40;99.90
25504;DHT22;13410;52.114;5.718;2022-11-27T02:58:40;9.40;99.90
25504;DHT22;13410;52.114;5.718;2022-11-27T03:01:06;9.50;99.90
25504;DHT22;13410;52.114;5.718;2022-11-27T03:03:37;9.70;99.90
25504;DHT22;13410;52.114;5.718;2022-11-27T03:06:09;9.90;99.90
25504;DHT22;13410;52.114;5.718;2022-11-27T03:08:37;9.80;99.90
25504;DHT22;13410;52.114;5.718;2022-11-27T03:11:10;9.50;99.90
25504;DHT22;13410;52.114;5.718;2022-11-27T03:13:47;9.50;99.90
25504;DHT22;13410;52.114;5.718;2022-11-27T03:21:56;9.30;99.90
25504;DHT22;13410;52.114;5.718;2022-11-27T03:24:23;9.20;99.90
25504;DHT22;13410;52.114;5.718;2022-11-27T03:26:50;9.20;99.90
25504;DHT22;13410;52.114;5.718;2022-11-27T03:29:20;9.20;99.90
25504;DHT22;13410;52.114;5.718;2022-11-27T03:31:48;9.30;99.90
25504;DHT22;13410;52.114;5.718;2022-11-27T03:34:14;9.30;99.90
25504;DHT22;13410;52.114;5.718;2022-11-27T03:36:40;9.40;99.90
25504;DHT22;13410;52.114;5.718;2022-11-27T03:39:06;9.50;99.90
25504;DHT22;13410;52.114;5.718;2022-11-27T03:42:04;9.50;99.90
25504;DHT22;13410;52.114;5.718;2022-11-27T03:47:38;9.50;99.90
25504;DHT22;13410;52.114;5.718;2022-11-27T04:00:38;9.60;99.90
25504;DHT22;13410;52.114;5.718;2022-11-27T04:03:08;9.90;99.90
25504;DHT22;13410;52.114;5.718;2022-11-27T04:05:34;9.80;99.90
25504;DHT22;13410;52.114;5.718;2022-11-27T04:08:00;9.90;99.90
25504;DHT22;13410;52.114;5.718;2022-11-27T04:10:25;10.00;99.90
25504;DHT22;13410;52.114;5.718;2022-11-27T04:12:51;9.90;99.90
25504;DHT22;13410;52.114;5.718;2022-11-27T04:15:16;10.10;99.90
25504;DHT22;13410;52.114;5.718;2022-11-27T04:17:42;10.10;99.90
25504;DHT22;13410;52.114;5.718;2022-11-27T04:20:09;10.10;99.90
25504;DHT22;13410;52.114;5.718;2022-11-27T04:22:34;9.90;99.90
25504;DHT22;13410;52.114;5.718;2022-11-27T04:25:00;9.90;99.90
25504;DHT22;13410;52.114;5.718;2022-11-27T04:27:26;9.80;99.90
25504;DHT22;13410;52.114;5.718;2022-11-27T04:29:51;9.90;99.90
25504;DHT22;13410;52.114;5.718;2022-11-27T04:32:17;10.10;99.90
25504;DHT22;13410;52.114;5.718;2022-11-27T04:34:42;10.20;99.90
25504;DHT22;13410;52.114;5.718;2022-11-27T04:37:08;10.10;99.90
25504;DHT22;13410;52.114;5.718;2022-11-27T04:39:34;10.10;99.90
25504;DHT22;13410;52.114;5.718;2022-11-27T04:41:59;10.20;99.90
25504;DHT22;13410;52.114;5.718;2022-11-27T04:44:25;10.20;99.90
25504;DHT22;13410;52.114;5.718;2022-11-27T04:46:50;10.40;99.90
25504;DHT22;13410;52.114;5.718;2022-11-27T04:49:16;10.40;99.90
25504;DHT22;13410;52.114;5.718;2022-11-27T04:51:42;10.50;99.90
25504;DHT22;13410;52.114;5.718;2022-11-27T04:54:07;10.40;99.90
25504;DHT22;13410;52.114;5.718;2022-11-27T04:56:33;10.50;99.90
25504;DHT22;13410;52.114;5.718;2022-11-27T04:58:58;10.80;99.90
25504;DHT22;13410;52.114;5.718;2022-11-27T05:01:24;10.80;99.90
25504;DHT22;13410;52.114;5.718;2022-11-27T05:03:49;10.80;99.90
25504;DHT22;13410;52.114;5.718;2022-11-27T05:06:15;10.70;99.90
25504;DHT22;13410;52.114;5.718;2022-11-27T05:08:41;10.70;99.90
25504;DHT22;13410;52.114;5.718;2022-11-27T05:11:10;10.80;99.90
25504;DHT22;13410;52.114;5.718;2022-11-27T05:13:36;10.60;99.90
25504;DHT22;13410;52.114;5.718;2022-11-27T05:16:02;10.40;99.90
25504;DHT22;13410;52.114;5.718;2022-11-27T05:18:28;10.30;99.90
25504;DHT22;13410;52.114;5.718;2022-11-27T05:20:57;10.40;99.90
25504;DHT22;13410;52.114;5.718;2022-11-27T05:23:23;10.50;99.90
25504;DHT22;13410;52.114;5.718;2022-11-27T05:25:49;10.50;99.90
25504;DHT22;13410;52.114;5.718;2022-11-27T05:28:15;10.50;99.90
25504;DHT22;13410;52.114;5.718;2022-11-27T05:30:40;10.30;99.90
25504;DHT22;13410;52.114;5.718;2022-11-27T05:33:06;10.40;99.90
25504;DHT22;13410;52.114;5.718;2022-11-27T05:35:32;10.50;99.90
25504;DHT22;13410;52.114;5.718;2022-11-27T05:37:58;10.40;99.90
25504;DHT22;13410;52.114;5.718;2022-11-27T05:40:23;10.40;99.90
25504;DHT22;13410;52.114;5.718;2022-11-27T05:42:49;10.60;99.90
25504;DHT22;13410;52.114;5.718;2022-11-27T05:45:14;10.40;99.90
25504;DHT22;13410;52.114;5.718;2022-11-27T05:47:40;10.40;99.90
25504;DHT22;13410;52.114;5.718;2022-11-27T05:50:06;10.10;99.90
25504;DHT22;13410;52.114;5.718;2022-11-27T05:52:32;10.10;99.90
25504;DHT22;13410;52.114;5.718;2022-11-27T05:54:57;10.10;99.90
25504;DHT22;13410;52.114;5.718;2022-11-27T05:57:23;10.50;99.90
25504;DHT22;13410;52.114;5.718;2022-11-27T05:59:48;10.50;99.90
25504;DHT22;13410;52.114;5.718;2022-11-27T06:02:14;10.60;99.90
25504;DHT22;13410;52.114;5.718;2022-11-27T06:04:39;10.60;99.90
25504;DHT22;13410;52.114;5.718;2022-11-27T06:07:05;10.70;99.90
25504;DHT22;13410;52.114;5.718;2022-11-27T06:09:30;10.70;99.90
25504;DHT22;13410;52.114;5.718;2022-11-27T06:11:56;10.80;99.90
25504;DHT22;13410;52.114;5.718;2022-11-27T06:14:22;10.70;99.90
25504;DHT22;13410;52.114;5.718;2022-11-27T06:16:47;10.60;99.90
25504;DHT22;13410;52.114;5.718;2022-11-27T06:19:13;10.70;99.90
25504;DHT22;13410;52.114;5.718;2022-11-27T06:21:38;10.70;99.90
25504;DHT22;13410;52.114;5.718;2022-11-27T06:24:04;10.50;99.90
25504;DHT22;13410;52.114;5.718;2022-11-27T06:26:32;10.40;99.90
25504;DHT22;13410;52.114;5.718;2022-11-27T06:28:59;10.60;99.90
25504;DHT22;13410;52.114;5.718;2022-11-27T06:31:27;10.80;99.90
25504;DHT22;13410;52.114;5.718;2022-11-27T06:33:54;10.80;99.90
25504;DHT22;13410;52.114;5.718;2022-11-27T06:36:20;11.00;99.90
25504;DHT22;13410;52.114;5.718;2022-11-27T06:38:46;11.20;99.90
25504;DHT22;13410;52.114;5.718;2022-11-27T06:41:17;10.90;99.90
25504;DHT22;13410;52.114;5.718;2022-11-27T06:43:43;10.90;99.90
25504;DHT22;13410;52.114;5.718;2022-11-27T06:46:12;10.90;99.90
25504;DHT22;13410;52.114;5.718;2022-11-27T06:48:40;11.10;99.90
25504;DHT22;13410;52.114;5.718;2022-11-27T06:51:07;11.00;99.90
25504;DHT22;13410;52.114;5.718;2022-11-27T06:53:34;11.00;99.90
25504;DHT22;13410;52.114;5.718;2022-11-27T06:56:09;11.30;99.90
25504;DHT22;13410;52.114;5.718;2022-11-27T06:58:36;11.20;99.90
25504;DHT22;13410;52.114;5.718;2022-11-27T07:01:04;11.20;99.90
25504;DHT22;13410;52.114;5.718;2022-11-27T07:03:30;11.10;99.90
25504;DHT22;13410;52.114;5.718;2022-11-27T07:05:59;11.00;99.90
25504;DHT22;13410;52.114;5.718;2022-11-27T07:08:24;11.00;99.90
25504;DHT22;13410;52.114;5.718;2022-11-27T07:10:50;10.90;99.90
25504;DHT22;13410;52.114;5.718;2022-11-27T07:13:16;11.00;99.90
25504;DHT22;13410;52.114;5.718;2022-11-27T07:15:42;11.20;99.90
25504;DHT22;13410;52.114;5.718;2022-11-27T07:18:07;11.00;99.90
25504;DHT22;13410;52.114;5.718;2022-11-27T07:20:33;10.70;99.90
25504;DHT22;13410;52.114;5.718;2022-11-27T07:22:58;10.40;99.90
25504;DHT22;13410;52.114;5.718;2022-11-27T07:25:24;10.40;99.90
25504;DHT22;13410;52.114;5.718;2022-11-27T07:27:50;10.40;99.90
25504;DHT22;13410;52.114;5.718;2022-11-27T07:30:15;10.50;99.90
25504;DHT22;13410;52.114;5.718;2022-11-27T07:32:41;10.50;99.90
25504;DHT22;13410;52.114;5.718;2022-11-27T07:35:07;10.70;99.90
25504;DHT22;13410;52.114;5.718;2022-11-27T07:37:33;10.60;99.90
25504;DHT22;13410;52.114;5.718;2022-11-27T07:39:58;10.60;99.90
25504;DHT22;13410;52.114;5.718;2022-11-27T07:42:24;10.50;99.90
25504;DHT22;13410;52.114;5.718;2022-11-27T07:44:50;10.70;99.90
25504;DHT22;13410;52.114;5.718;2022-11-27T07:47:15;10.70;99.90
25504;DHT22;13410;52.114;5.718;2022-11-27T07:49:41;10.70;99.90
25504;DHT22;13410;52.114;5.718;2022-11-27T07:52:06;10.60;99.90
25504;DHT22;13410;52.114;5.718;2022-11-27T07:54:32;10.50;99.90
25504;DHT22;13410;52.114;5.718;2022-11-27T07:56:58;10.20;99.90
25504;DHT22;13410;52.114;5.718;2022-11-27T07:59:24;10.10;99.90
25504;DHT22;13410;52.114;5.718;2022-11-27T08:01:49;10.20;99.90
25504;DHT22;13410;52.114;5.718;2022-11-27T08:04:15;10.30;99.90
25504;DHT22;13410;52.114;5.718;2022-11-27T08:06:40;10.00;99.90
25504;DHT22;13410;52.114;5.718;2022-11-27T08:09:06;9.70;99.90
25504;DHT22;13410;52.114;5.718;2022-11-27T08:11:32;10.00;99.90
25504;DHT22;13410;52.114;5.718;2022-11-27T08:14:03;10.20;99.90
25504;DHT22;13410;52.114;5.718;2022-11-27T08:16:30;10.40;99.90
25504;DHT22;13410;52.114;5.718;2022-11-27T08:18:56;10.50;99.90
25504;DHT22;13410;52.114;5.718;2022-11-27T08:21:22;10.70;99.90
25504;DHT22;13410;52.114;5.718;2022-11-27T08:23:48;10.90;99.90
25504;DHT22;13410;52.114;5.718;2022-11-27T08:26:14;11.10;99.90
25504;DHT22;13410;52.114;5.718;2022-11-27T08:28:40;10.70;99.90
25504;DHT22;13410;52.114;5.718;2022-11-27T08:31:07;10.50;99.90
25504;DHT22;13410;52.114;5.718;2022-11-27T08:33:33;10.50;99.90
25504;DHT22;13410;52.114;5.718;2022-11-27T08:36:00;10.70;99.90
25504;DHT22;13410;52.114;5.718;2022-11-27T08:38:26;10.70;99.90
25504;DHT22;13410;52.114;5.718;2022-11-27T08:40:57;10.60;99.90
25504;DHT22;13410;52.114;5.718;2022-11-27T08:43:23;10.60;99.90
25504;DHT22;13410;52.114;5.718;2022-11-27T08:45:49;10.70;99.90
25504;DHT22;13410;52.114;5.718;2022-11-27T08:48:15;10.70;99.90
25504;DHT22;13410;52.114;5.718;2022-11-27T08:50:41;10.80;99.90
25504;DHT22;13410;52.114;5.718;2022-11-27T08:53:06;10.90;99.90
25504;DHT22;13410;52.114;5.718;2022-11-27T08:55:32;10.80;99.90
25504;DHT22;13410;52.114;5.718;2022-11-27T08:57:57;10.70;99.90
25504;DHT22;13410;52.114;5.718;2022-11-27T09:00:23;10.80;99.90
25504;DHT22;13410;52.114;5.718;2022-11-27T09:02:49;10.80;99.90
25504;DHT22;13410;52.114;5.718;2022-11-27T09:05:14;11.00;99.90
25504;DHT22;13410;52.114;5.718;2022-11-27T09:07:40;11.00;99.90
25504;DHT22;13410;52.114;5.718;2022-11-27T09:10:06;11.00;99.90
25504;DHT22;13410;52.114;5.718;2022-11-27T09:12:32;11.10;99.90
25504;DHT22;13410;52.114;5.718;2022-11-27T09:14:58;10.90;99.90
25504;DHT22;13410;52.114;5.718;2022-11-27T09:17:23;10.90;99.90
25504;DHT22;13410;52.114;5.718;2022-11-27T09:19:49;10.80;99.90
25504;DHT22;13410;52.114;5.718;2022-11-27T09:22:15;10.90;99.90
25504;DHT22;13410;52.114;5.718;2022-11-27T09:24:40;11.10;99.90
25504;DHT22;13410;52.114;5.718;2022-11-27T09:27:06;11.20;99.90
25504;DHT22;13410;52.114;5.718;2022-11-27T09:29:33;11.00;99.90
25504;DHT22;13410;52.114;5.718;2022-11-27T09:31:59;10.80;99.90
25504;DHT22;13410;52.114;5.718;2022-11-27T09:34:25;11.10;99.90
25504;DHT22;13410;52.114;5.718;2022-11-27T09:36:50;11.10;99.90
25504;DHT22;13410;52.114;5.718;2022-11-27T09:39:16;11.00;99.90
25504;DHT22;13410;52.114;5.718;2022-11-27T09:41:55;11.20;99.90
25504;DHT22;13410;52.114;5.718;2022-11-27T09:44:42;11.40;99.90
25504;DHT22;13410;52.114;5.718;2022-11-27T09:47:33;11.30;99.90
25504;DHT22;13410;52.114;5.718;2022-11-27T09:50:03;11.30;99.90
25504;DHT22;13410;52.114;5.718;2022-11-27T09:52:52;11.40;99.90
25504;DHT22;13410;52.114;5.718;2022-11-27T09:55:32;11.60;99.90
25504;DHT22;13410;52.114;5.718;2022-11-27T09:58:23;11.40;99.90
25504;DHT22;13410;52.114;5.718;2022-11-27T10:00:51;11.30;99.90
25504;DHT22;13410;52.114;5.718;2022-11-27T10:03:23;11.30;99.90
25504;DHT22;13410;52.114;5.718;2022-11-27T10:16:50;11.50;99.90
25504;DHT22;13410;52.114;5.718;2022-11-27T10:22:49;11.50;99.90
25504;DHT22;13410;52.114;5.718;2022-11-27T10:25:27;11.60;99.90
25504;DHT22;13410;52.114;5.718;2022-11-27T10:30:30;11.60;99.90
25504;DHT22;13410;52.114;5.718;2022-11-27T10:32:58;11.50;99.90
25504;DHT22;13410;52.114;5.718;2022-11-27T10:35:27;11.60;99.90
25504;DHT22;13410;52.114;5.718;2022-11-27T10:37:58;11.80;99.90
25504;DHT22;13410;52.114;5.718;2022-11-27T10:40:30;11.80;99.90
25504;DHT22;13410;52.114;5.718;2022-11-27T10:43:04;11.70;99.90
25504;DHT22;13410;52.114;5.718;2022-11-27T10:45:58;11.80;99.90
25504;DHT22;13410;52.114;5.718;2022-11-27T10:48:25;11.80;99.90
25504;DHT22;13410;52.114;5.718;2022-11-27T10:50:54;11.70;99.90
25504;DHT22;13410;52.114;5.718;2022-11-27T10:56:20;11.70;99.90
25504;DHT22;13410;52.114;5.718;2022-11-27T10:59:03;11.80;99.90
25504;DHT22;13410;52.114;5.718;2022-11-27T11:01:44;12.00;99.90
25504;DHT22;13410;52.114;5.718;2022-11-27T11:04:11;12.10;99.90
25504;DHT22;13410;52.114;5.718;2022-11-27T11:06:43;12.30;99.90
25504;DHT22;13410;52.114;5.718;2022-11-27T11:09:22;12.20;99.90
25504;DHT22;13410;52.114;5.718;2022-11-27T11:11:51;12.20;99.90
25504;DHT22;13410;52.114;5.718;2022-11-27T11:14:25;12.10;99.90
25504;DHT22;13410;52.114;5.718;2022-11-27T11:16:53;12.20;99.90
25504;DHT22;13410;52.114;5.718;2022-11-27T11:21:49;12.10;99.90
25504;DHT22;13410;52.114;5.718;2022-11-27T11:24:30;12.20;99.90
25504;DHT22;13410;52.114;5.718;2022-11-27T11:27:00;12.20;99.90
25504;DHT22;13410;52.114;5.718;2022-11-27T11:29:39;12.00;99.90
25504;DHT22;13410;52.114;5.718;2022-11-27T11:37:37;12.10;99.90
25504;DHT22;13410;52.114;5.718;2022-11-27T11:40:30;12.10;99.90
25504;DHT22;13410;52.114;5.718;2022-11-27T11:45:20;12.20;99.90
25504;DHT22;13410;52.114;5.718;2022-11-27T11:47:52;12.00;99.90
25504;DHT22;13410;52.114;5.718;2022-11-27T11:50:28;11.80;99.90
25504;DHT22;13410;52.114;5.718;2022-11-27T11:58:57;11.50;99.90
25504;DHT22;13410;52.114;5.718;2022-11-27T12:07:19;11.70;99.90
25504;DHT22;13410;52.114;5.718;2022-11-27T12:10:42;11.80;99.90
25504;DHT22;13410;52.114;5.718;2022-11-27T12:19:05;11.20;99.90
25504;DHT22;13410;52.114;5.718;2022-11-27T12:27:01;11.30;99.90
25504;DHT22;13410;52.114;5.718;2022-11-27T12:29:37;11.60;99.90
25504;DHT22;13410;52.114;5.718;2022-11-27T12:38:29;11.60;99.90
25504;DHT22;13410;52.114;5.718;2022-11-27T12:43:50;11.90;99.90
25504;DHT22;13410;52.114;5.718;2022-11-27T12:46:32;12.00;99.90
25504;DHT22;13410;52.114;5.718;2022-11-27T12:49:24;11.90;99.90
25504;DHT22;13410;52.114;5.718;2022-11-27T12:52:10;12.00;99.90
25504;DHT22;13410;52.114;5.718;2022-11-27T12:57:49;12.40;99.90
25504;DHT22;13410;52.114;5.718;2022-11-27T13:00:19;12.50;99.90
25504;DHT22;13410;52.114;5.718;2022-11-27T13:02:54;12.40;99.90
25504;DHT22;13410;52.114;5.718;2022-11-27T13:05:33;12.60;99.90
25504;DHT22;13410;52.114;5.718;2022-11-27T13:08:25;12.50;99.90
25504;DHT22;13410;52.114;5.718;2022-11-27T13:10:55;12.40;99.90
25504;DHT22;13410;52.114;5.718;2022-11-27T13:13:47;12.40;99.90
25504;DHT22;13410;52.114;5.718;2022-11-27T13:16:18;12.40;99.90
25504;DHT22;13410;52.114;5.718;2022-11-27T13:21:29;12.60;99.90
25504;DHT22;13410;52.114;5.718;2022-11-27T13:23:59;12.70;99.90
25504;DHT22;13410;52.114;5.718;2022-11-27T13:29:58;12.50;99.90
25504;DHT22;13410;52.114;5.718;2022-11-27T13:32:29;12.30;99.90
25504;DHT22;13410;52.114;5.718;2022-11-27T13:34:59;12.20;99.90
25504;DHT22;13410;52.114;5.718;2022-11-27T13:37:34;12.30;99.90
25504;DHT22;13410;52.114;5.718;2022-11-27T13:40:15;12.30;99.90
25504;DHT22;13410;52.114;5.718;2022-11-27T13:42:45;12.10;99.90
25504;DHT22;13410;52.114;5.718;2022-11-27T13:45:27;12.00;99.90
25504;DHT22;13410;52.114;5.718;2022-11-27T13:47:54;12.20;99.90
25504;DHT22;13410;52.114;5.718;2022-11-27T13:50:21;12.10;99.90
25504;DHT22;13410;52.114;5.718;2022-11-27T13:52:56;12.20;99.90
25504;DHT22;13410;52.114;5.718;2022-11-27T13:55:33;12.30;99.90
25504;DHT22;13410;52.114;5.718;2022-11-27T13:58:00;12.50;99.90
25504;DHT22;13410;52.114;5.718;2022-11-27T14:00:40;12.40;99.90
25504;DHT22;13410;52.114;5.718;2022-11-27T14:03:19;12.40;99.90
25504;DHT22;13410;52.114;5.718;2022-11-27T14:05:45;12.30;99.90
25504;DHT22;13410;52.114;5.718;2022-11-27T14:08:21;12.20;99.90
25504;DHT22;13410;52.114;5.718;2022-11-27T14:11:02;12.00;99.90
25504;DHT22;13410;52.114;5.718;2022-11-27T14:13:41;12.00;99.90
25504;DHT22;13410;52.114;5.718;2022-11-27T14:16:30;11.90;99.90
25504;DHT22;13410;52.114;5.718;2022-11-27T14:19:03;12.00;99.90
25504;DHT22;13410;52.114;5.718;2022-11-27T14:21:49;12.10;99.90
25504;DHT22;13410;52.114;5.718;2022-11-27T14:24:33;12.10;99.90
25504;DHT22;13410;52.114;5.718;2022-11-27T14:27:00;12.20;99.90
25504;DHT22;13410;52.114;5.718;2022-11-27T14:29:30;11.90;99.90
25504;DHT22;13410;52.114;5.718;2022-11-27T14:32:01;12.10;99.90
25504;DHT22;13410;52.114;5.718;2022-11-27T14:34:28;12.20;99.90
25504;DHT22;13410;52.114;5.718;2022-11-27T14:36:54;12.20;99.90
25504;DHT22;13410;52.114;5.718;2022-11-27T14:39:22;12.10;99.90
25504;DHT22;13410;52.114;5.718;2022-11-27T14:42:22;11.90;99.90
25504;DHT22;13410;52.114;5.718;2022-11-27T14:44:48;12.00;99.90
25504;DHT22;13410;52.114;5.718;2022-11-27T14:47:24;12.00;99.90
25504;DHT22;13410;52.114;5.718;2022-11-27T14:49:54;11.90;99.90
25504;DHT22;13410;52.114;5.718;2022-11-27T14:52:20;11.60;99.90
25504;DHT22;13410;52.114;5.718;2022-11-27T14:54:46;11.50;99.90
25504;DHT22;13410;52.114;5.718;2022-11-27T14:57:25;11.50;99.90
25504;DHT22;13410;52.114;5.718;2022-11-27T15:00:13;11.40;99.90
25504;DHT22;13410;52.114;5.718;2022-11-27T15:02:39;11.20;99.90
25504;DHT22;13410;52.114;5.718;2022-11-27T15:05:06;11.10;99.90
25504;DHT22;13410;52.114;5.718;2022-11-27T15:07:34;11.10;99.90
25504;DHT22;13410;52.114;5.718;2022-11-27T15:10:03;11.10;99.90
25504;DHT22;13410;52.114;5.718;2022-11-27T15:12:34;11.10;99.90
25504;DHT22;13410;52.114;5.718;2022-11-27T15:15:12;11.20;99.90
25504;DHT22;13410;52.114;5.718;2022-11-27T15:17:43;11.20;99.90
25504;DHT22;13410;52.114;5.718;2022-11-27T15:20:20;11.30;99.90
25504;DHT22;13410;52.114;5.718;2022-11-27T15:22:53;11.30;99.90
25504;DHT22;13410;52.114;5.718;2022-11-27T15:25:37;11.40;99.90
25504;DHT22;13410;52.114;5.718;2022-11-27T15:30:47;11.40;99.90
25504;DHT22;13410;52.114;5.718;2022-11-27T15:33:30;11.50;99.90
25504;DHT22;13410;52.114;5.718;2022-11-27T15:36:26;11.60;99.90
25504;DHT22;13410;52.114;5.718;2022-11-27T15:41:59;11.50;99.90
25504;DHT22;13410;52.114;5.718;2022-11-27T15:44:27;11.50;99.90
25504;DHT22;13410;52.114;5.718;2022-11-27T15:46:55;11.40;99.90
25504;DHT22;13410;52.114;5.718;2022-11-27T15:49:21;11.50;99.90
25504;DHT22;13410;52.114;5.718;2022-11-27T15:51:48;11.60;99.90
25504;DHT22;13410;52.114;5.718;2022-11-27T15:54:14;11.60;99.90
25504;DHT22;13410;52.114;5.718;2022-11-27T15:56:40;11.70;99.90
25504;DHT22;13410;52.114;5.718;2022-11-27T15:59:06;11.80;99.90
25504;DHT22;13410;52.114;5.718;2022-11-27T16:01:32;11.50;99.90
25504;DHT22;13410;52.114;5.718;2022-11-27T16:03:57;11.50;99.90
25504;DHT22;13410;52.114;5.718;2022-11-27T16:06:23;11.50;99.90
25504;DHT22;13410;52.114;5.718;2022-11-27T16:08:54;11.50;99.90
25504;DHT22;13410;52.114;5.718;2022-11-27T16:11:20;11.60;99.90
25504;DHT22;13410;52.114;5.718;2022-11-27T16:13:45;11.60;99.90
25504;DHT22;13410;52.114;5.718;2022-11-27T16:16:11;11.50;99.90
25504;DHT22;13410;52.114;5.718;2022-11-27T16:18:36;11.50;99.90
25504;DHT22;13410;52.114;5.718;2022-11-27T16:21:07;11.60;99.90
25504;DHT22;13410;52.114;5.718;2022-11-27T16:23:33;11.60;99.90
25504;DHT22;13410;52.114;5.718;2022-11-27T16:25:59;11.60;99.90
25504;DHT22;13410;52.114;5.718;2022-11-27T16:28:26;11.60;99.90
25504;DHT22;13410;52.114;5.718;2022-11-27T16:30:53;11.50;99.90
25504;DHT22;13410;52.114;5.718;2022-11-27T16:33:19;11.70;99.90
25504;DHT22;13410;52.114;5.718;2022-11-27T16:35:46;11.80;99.90
25504;DHT22;13410;52.114;5.718;2022-11-27T16:38:12;11.60;99.90
25504;DHT22;13410;52.114;5.718;2022-11-27T16:40:39;11.60;99.90
25504;DHT22;13410;52.114;5.718;2022-11-27T16:43:05;11.70;99.90
25504;DHT22;13410;52.114;5.718;2022-11-27T16:45:30;11.70;99.90
25504;DHT22;13410;52.114;5.718;2022-11-27T16:47:56;11.60;99.90
25504;DHT22;13410;52.114;5.718;2022-11-27T16:50:21;11.50;99.90
25504;DHT22;13410;52.114;5.718;2022-11-27T16:52:49;11.20;99.90
25504;DHT22;13410;52.114;5.718;2022-11-27T16:55:15;11.30;99.90
25504;DHT22;13410;52.114;5.718;2022-11-27T16:57:40;11.40;99.90
25504;DHT22;13410;52.114;5.718;2022-11-27T17:00:06;11.50;99.90
25504;DHT22;13410;52.114;5.718;2022-11-27T17:02:32;11.30;99.90
25504;DHT22;13410;52.114;5.718;2022-11-27T17:04:58;11.20;99.90
25504;DHT22;13410;52.114;5.718;2022-11-27T17:07:24;11.40;99.90
25504;DHT22;13410;52.114;5.718;2022-11-27T17:09:49;11.30;99.90
25504;DHT22;13410;52.114;5.718;2022-11-27T17:12:15;11.30;99.90
25504;DHT22;13410;52.114;5.718;2022-11-27T17:14:42;11.30;99.90
25504;DHT22;13410;52.114;5.718;2022-11-27T17:17:08;11.30;99.90
25504;DHT22;13410;52.114;5.718;2022-11-27T17:19:33;11.50;99.90
25504;DHT22;13410;52.114;5.718;2022-11-27T17:21:59;11.60;99.90
25504;DHT22;13410;52.114;5.718;2022-11-27T17:24:25;11.70;99.90
25504;DHT22;13410;52.114;5.718;2022-11-27T17:26:50;11.80;99.90
25504;DHT22;13410;52.114;5.718;2022-11-27T17:29:18;11.90;99.90
25504;DHT22;13410;52.114;5.718;2022-11-27T17:31:48;11.80;99.90
25504;DHT22;13410;52.114;5.718;2022-11-27T17:34:15;11.70;99.90
25504;DHT22;13410;52.114;5.718;2022-11-27T17:36:42;11.70;99.90
25504;DHT22;13410;52.114;5.718;2022-11-27T17:39:10;11.70;99.90